This is the latest recevied weather packets stored in our database for station/object OE5WWO. If no packets are shown the sender has not sent any weather packets the latest 10 day(s).
| Time | Temp. | Humidity | Pressure | Rain* | Wind** | Luminosity | Snow |
|---|---|---|---|---|---|---|---|
| 1777312238 | 17.22° C | 36% | 1018.1 hPa | 0 mm | - | - | - |
| 1777311337 | 17.78° C | 35% | 1018.1 hPa | 0 mm | - | - | - |
| 1777309837 | 18.89° C | 30% | 1018.1 hPa | 0 mm | - | - | - |
| 1777309249 | 18.89° C | 30% | 1018.1 hPa | 0 mm | - | - | - |
| 1777308344 | 19.44° C | 29% | 1018.1 hPa | 0 mm | - | - | - |
| 1777306551 | 19.44° C | 27% | 1018.1 hPa | 0 mm | - | - | - |
| 1777304138 | 20° C | 26% | 1018.6 hPa | 0 mm | - | - | - |
| 1777301439 | 21.11° C | 28% | 1018.8 hPa | 0 mm | - | - | - |
| 1777299938 | 21.11° C | 25% | 1018.9 hPa | 0 mm | - | - | - |
| 1777299355 | 20.56° C | 26% | 1019.1 hPa | 0 mm | - | - | - |
| 1777298444 | 21.11° C | 27% | 1019.3 hPa | 0 mm | - | - | - |
| 1777297551 | 21.11° C | 31% | 1019.5 hPa | 0 mm | - | - | - |
| 1777296939 | 21.11° C | 28% | 1019.5 hPa | 0 mm | - | - | - |
| 1777291839 | 20° C | 31% | 1020.5 hPa | 0 mm | - | - | - |
| 1777291540 | 20.56° C | 32% | 1020.5 hPa | 0 mm | - | - | - |
| 1777291251 | 20.56° C | 33% | 1020.6 hPa | 0 mm | - | - | - |
| 1777288839 | 18.89° C | 34% | 1021 hPa | 0 mm | - | - | - |
| 1777287336 | 18.33° C | 37% | 1021.1 hPa | 0 mm | - | - | - |
| 1777284639 | 17.22° C | 39% | 1021.6 hPa | 0 mm | - | - | - |
| 1777282539 | 16.11° C | 40% | 1022 hPa | 0 mm | - | - | - |
| 1777281639 | 15.56° C | 43% | 1022.1 hPa | 0 mm | - | - | - |
| 1777279839 | 14.44° C | 45% | 1022.4 hPa | 0 mm | - | - | - |
| 1777276851 | 12.78° C | 49% | 1022.5 hPa | 0 mm | - | - | - |
| 1777274436 | 11.67° C | 54% | 1022.8 hPa | 0 mm | - | - | - |
| 1777273251 | 11.11° C | 55% | 1022.9 hPa | 0 mm | - | - | - |
* Rain latest hour (hover to see other rain measurements)
** Current wind speed in m/s (hover to see current wind gust speed)